sensor_id;sensor_type;location;lat;lon;timestamp;noise_LAeq;noise_LA_min;noise_LA_max;noise_LA01;noise_LA95
69620;Laerm;57654;51.434;5.984;2022-09-09T00:00:05;31.77;29.17;39.71;;
69620;Laerm;57654;51.434;5.984;2022-09-09T00:00:17;32.03;29.18;40.14;;
69620;Laerm;57654;51.434;5.984;2022-09-09T00:00:30;31.83;29.66;37.60;;
69620;Laerm;57654;51.434;5.984;2022-09-09T00:02:04;31.90;29.73;37.44;;
69620;Laerm;57654;51.434;5.984;2022-09-09T00:02:18;32.09;29.39;38.58;;
69620;Laerm;57654;51.434;5.984;2022-09-09T00:02:29;31.88;29.12;36.39;;
69620;Laerm;57654;51.434;5.984;2022-09-09T00:02:39;31.85;29.60;35.73;;
69620;Laerm;57654;51.434;5.984;2022-09-09T00:02:57;31.92;29.81;40.66;;
69620;Laerm;57654;51.434;5.984;2022-09-09T00:03:14;31.90;29.34;37.37;;
69620;Laerm;57654;51.434;5.984;2022-09-09T00:03:27;31.93;29.21;35.49;;
69620;Laerm;57654;51.434;5.984;2022-09-09T00:03:59;32.03;29.89;39.04;;
69620;Laerm;57654;51.434;5.984;2022-09-09T00:04:35;32.19;29.46;39.86;;
69620;Laerm;57654;51.434;5.984;2022-09-09T00:04:45;31.99;29.47;40.27;;
69620;Laerm;57654;51.434;5.984;2022-09-09T00:05:07;32.24;29.15;38.93;;
69620;Laerm;57654;51.434;5.984;2022-09-09T00:05:41;32.38;29.76;40.88;;
69620;Laerm;57654;51.434;5.984;2022-09-09T00:05:59;33.08;30.39;40.00;;
69620;Laerm;57654;51.434;5.984;2022-09-09T00:06:21;32.56;30.51;36.85;;
69620;Laerm;57654;51.434;5.984;2022-09-09T00:06:42;32.42;30.19;36.13;;
69620;Laerm;57654;51.434;5.984;2022-09-09T00:07:09;32.17;29.30;37.73;;
69620;Laerm;57654;51.434;5.984;2022-09-09T00:07:31;31.95;29.37;36.57;;
69620;Laerm;57654;51.434;5.984;2022-09-09T00:07:49;32.36;29.51;41.30;;
69620;Laerm;57654;51.434;5.984;2022-09-09T00:08:01;33.48;29.74;38.25;;
69620;Laerm;57654;51.434;5.984;2022-09-09T00:08:20;33.28;29.71;39.19;;
69620;Laerm;57654;51.434;5.984;2022-09-09T00:09:15;32.06;29.53;37.41;;
69620;Laerm;57654;51.434;5.984;2022-09-09T00:09:27;35.02;29.88;43.55;;
69620;Laerm;57654;51.434;5.984;2022-09-09T00:09:48;47.78;39.52;51.14;;
69620;Laerm;57654;51.434;5.984;2022-09-09T00:10:38;31.80;29.59;36.75;;
69620;Laerm;57654;51.434;5.984;2022-09-09T00:10:52;31.60;29.54;41.04;;
69620;Laerm;57654;51.434;5.984;2022-09-09T00:11:04;31.48;29.34;35.41;;
69620;Laerm;57654;51.434;5.984;2022-09-09T00:11:16;31.59;28.81;37.12;;
69620;Laerm;57654;51.434;5.984;2022-09-09T00:11:40;31.60;28.91;36.08;;
69620;Laerm;57654;51.434;5.984;2022-09-09T00:11:52;31.63;29.24;37.52;;
69620;Laerm;57654;51.434;5.984;2022-09-09T00:12:14;31.71;29.07;37.19;;
69620;Laerm;57654;51.434;5.984;2022-09-09T00:12:33;31.51;29.12;37.30;;
69620;Laerm;57654;51.434;5.984;2022-09-09T00:13:01;32.01;29.20;36.38;;
69620;Laerm;57654;51.434;5.984;2022-09-09T00:13:35;31.66;28.89;37.25;;
69620;Laerm;57654;51.434;5.984;2022-09-09T00:13:51;31.55;29.13;38.06;;
69620;Laerm;57654;51.434;5.984;2022-09-09T00:14:05;31.78;29.42;39.88;;
69620;Laerm;57654;51.434;5.984;2022-09-09T00:14:51;46.39;31.87;50.24;;
69620;Laerm;57654;51.434;5.984;2022-09-09T00:15:11;45.50;31.61;50.31;;
69620;Laerm;57654;51.434;5.984;2022-09-09T00:15:27;32.18;29.85;37.39;;
69620;Laerm;57654;51.434;5.984;2022-09-09T00:16:25;31.81;29.54;38.19;;
69620;Laerm;57654;51.434;5.984;2022-09-09T00:16:36;31.98;29.23;37.12;;
69620;Laerm;57654;51.434;5.984;2022-09-09T00:16:56;31.93;29.70;36.29;;
69620;Laerm;57654;51.434;5.984;2022-09-09T00:17:24;32.03;29.64;35.94;;
69620;Laerm;57654;51.434;5.984;2022-09-09T00:17:39;32.48;29.49;40.16;;
69620;Laerm;57654;51.434;5.984;2022-09-09T00:17:53;33.26;29.87;45.50;;
69620;Laerm;57654;51.434;5.984;2022-09-09T00:19:19;31.52;29.35;36.48;;
69620;Laerm;57654;51.434;5.984;2022-09-09T00:20:58;31.61;29.10;36.68;;
69620;Laerm;57654;51.434;5.984;2022-09-09T00:21:02;31.80;29.06;36.25;;
69620;Laerm;57654;51.434;5.984;2022-09-09T00:21:16;31.72;29.24;35.60;;
69620;Laerm;57654;51.434;5.984;2022-09-09T00:21:35;31.58;29.68;37.22;;
69620;Laerm;57654;51.434;5.984;2022-09-09T00:21:47;31.41;29.29;35.53;;
69620;Laerm;57654;51.434;5.984;2022-09-09T00:22:18;31.74;29.22;37.04;;
69620;Laerm;57654;51.434;5.984;2022-09-09T00:22:30;32.01;29.28;39.33;;
69620;Laerm;57654;51.434;5.984;2022-09-09T00:22:47;31.67;29.06;38.52;;
69620;Laerm;57654;51.434;5.984;2022-09-09T00:23:01;31.55;29.46;35.46;;
69620;Laerm;57654;51.434;5.984;2022-09-09T00:23:29;31.75;29.50;37.79;;
69620;Laerm;57654;51.434;5.984;2022-09-09T00:23:43;31.91;29.37;36.25;;
69620;Laerm;57654;51.434;5.984;2022-09-09T00:23:54;31.71;29.50;36.47;;
69620;Laerm;57654;51.434;5.984;2022-09-09T00:24:12;31.70;29.34;36.65;;
69620;Laerm;57654;51.434;5.984;2022-09-09T00:24:44;31.73;28.93;37.36;;
69620;Laerm;57654;51.434;5.984;2022-09-09T00:24:55;31.62;28.96;37.16;;
69620;Laerm;57654;51.434;5.984;2022-09-09T00:25:14;31.82;29.51;35.67;;
69620;Laerm;57654;51.434;5.984;2022-09-09T00:25:32;31.66;29.13;36.29;;
69620;Laerm;57654;51.434;5.984;2022-09-09T00:26:09;32.27;29.69;37.08;;
69620;Laerm;57654;51.434;5.984;2022-09-09T00:26:32;35.71;30.66;42.29;;
69620;Laerm;57654;51.434;5.984;2022-09-09T00:26:45;49.88;36.35;54.85;;
69620;Laerm;57654;51.434;5.984;2022-09-09T00:27:01;49.24;42.71;52.89;;
69620;Laerm;57654;51.434;5.984;2022-09-09T00:27:35;46.77;43.21;49.25;;
69620;Laerm;57654;51.434;5.984;2022-09-09T00:27:48;42.98;34.26;46.20;;
69620;Laerm;57654;51.434;5.984;2022-09-09T00:27:59;33.17;30.96;36.66;;
69620;Laerm;57654;51.434;5.984;2022-09-09T00:28:19;32.16;30.38;35.44;;
69620;Laerm;57654;51.434;5.984;2022-09-09T00:28:30;32.20;29.74;37.46;;
69620;Laerm;57654;51.434;5.984;2022-09-09T00:29:25;31.91;29.47;38.04;;
69620;Laerm;57654;51.434;5.984;2022-09-09T00:29:30;32.70;29.56;45.35;;
69620;Laerm;57654;51.434;5.984;2022-09-09T00:29:44;31.58;29.15;38.13;;
69620;Laerm;57654;51.434;5.984;2022-09-09T00:30:13;33.60;29.01;46.13;;
69620;Laerm;57654;51.434;5.984;2022-09-09T00:30:25;33.48;29.19;49.84;;
69620;Laerm;57654;51.434;5.984;2022-09-09T00:30:36;33.95;29.08;50.64;;
69620;Laerm;57654;51.434;5.984;2022-09-09T00:30:47;31.48;29.03;34.83;;
69620;Laerm;57654;51.434;5.984;2022-09-09T00:31:16;31.66;29.07;41.35;;
69620;Laerm;57654;51.434;5.984;2022-09-09T00:31:29;33.41;28.72;56.83;;
69620;Laerm;57654;51.434;5.984;2022-09-09T00:31:40;31.53;29.02;36.75;;
69620;Laerm;57654;51.434;5.984;2022-09-09T00:31:50;33.11;28.88;46.82;;
69620;Laerm;57654;51.434;5.984;2022-09-09T00:32:15;31.70;29.22;38.08;;
69620;Laerm;57654;51.434;5.984;2022-09-09T00:32:28;31.36;28.90;38.10;;
69620;Laerm;57654;51.434;5.984;2022-09-09T00:32:39;31.37;29.17;35.17;;
69620;Laerm;57654;51.434;5.984;2022-09-09T00:33:08;31.62;29.24;37.16;;
69620;Laerm;57654;51.434;5.984;2022-09-09T00:33:22;31.78;29.27;48.48;;
69620;Laerm;57654;51.434;5.984;2022-09-09T00:33:33;31.63;29.46;36.27;;
69620;Laerm;57654;51.434;5.984;2022-09-09T00:33:44;32.16;29.74;38.11;;
69620;Laerm;57654;51.434;5.984;2022-09-09T00:33:54;33.10;30.06;42.52;;
69620;Laerm;57654;51.434;5.984;2022-09-09T00:34:12;33.25;30.49;36.69;;
69620;Laerm;57654;51.434;5.984;2022-09-09T00:34:23;33.63;29.73;49.39;;
69620;Laerm;57654;51.434;5.984;2022-09-09T00:34:36;32.76;30.62;36.70;;
69620;Laerm;57654;51.434;5.984;2022-09-09T00:34:53;32.36;29.33;35.51;;
69620;Laerm;57654;51.434;5.984;2022-09-09T00:35:18;32.27;29.49;39.23;;
69620;Laerm;57654;51.434;5.984;2022-09-09T00:35:32;32.00;29.02;37.02;;
69620;Laerm;57654;51.434;5.984;2022-09-09T00:35:45;32.01;29.82;38.80;;
69620;Laerm;57654;51.434;5.984;2022-09-09T00:35:57;32.00;29.53;36.82;;
69620;Laerm;57654;51.434;5.984;2022-09-09T00:36:13;31.90;29.19;35.31;;
69620;Laerm;57654;51.434;5.984;2022-09-09T00:36:24;32.14;29.56;37.69;;
69620;Laerm;57654;51.434;5.984;2022-09-09T00:36:38;32.02;29.67;37.71;;
69620;Laerm;57654;51.434;5.984;2022-09-09T00:36:49;31.76;29.09;36.87;;
69620;Laerm;57654;51.434;5.984;2022-09-09T00:37:01;31.84;29.24;39.63;;
69620;Laerm;57654;51.434;5.984;2022-09-09T00:37:12;31.82;29.44;39.90;;
69620;Laerm;57654;51.434;5.984;2022-09-09T00:37:24;31.45;29.06;36.81;;
69620;Laerm;57654;51.434;5.984;2022-09-09T00:37:35;31.65;29.69;36.80;;
69620;Laerm;57654;51.434;5.984;2022-09-09T00:37:47;31.81;29.31;37.40;;
69620;Laerm;57654;51.434;5.984;2022-09-09T00:38:33;31.93;29.71;36.86;;
69620;Laerm;57654;51.434;5.984;2022-09-09T00:38:37;31.61;29.12;37.06;;
69620;Laerm;57654;51.434;5.984;2022-09-09T00:38:52;31.76;29.21;37.09;;
69620;Laerm;57654;51.434;5.984;2022-09-09T00:39:05;31.85;29.42;40.27;;
69620;Laerm;57654;51.434;5.984;2022-09-09T00:39:40;31.69;28.96;40.07;;
69620;Laerm;57654;51.434;5.984;2022-09-09T00:39:53;31.70;29.37;37.60;;
69620;Laerm;57654;51.434;5.984;2022-09-09T00:40:08;31.78;29.40;36.36;;
69620;Laerm;57654;51.434;5.984;2022-09-09T00:40:29;31.68;28.98;38.07;;
69620;Laerm;57654;51.434;5.984;2022-09-09T00:41:40;31.91;29.02;37.60;;
69620;Laerm;57654;51.434;5.984;2022-09-09T00:42:05;31.90;29.27;37.54;;
69620;Laerm;57654;51.434;5.984;2022-09-09T00:42:23;31.53;29.11;35.60;;
69620;Laerm;57654;51.434;5.984;2022-09-09T00:42:43;31.98;29.40;37.87;;
69620;Laerm;57654;51.434;5.984;2022-09-09T00:43:20;31.98;29.34;38.84;;
69620;Laerm;57654;51.434;5.984;2022-09-09T00:43:36;32.30;29.78;37.13;;
69620;Laerm;57654;51.434;5.984;2022-09-09T00:43:52;32.48;29.66;37.14;;
69620;Laerm;57654;51.434;5.984;2022-09-09T00:44:38;31.93;29.69;38.42;;
69620;Laerm;57654;51.434;5.984;2022-09-09T00:46:41;31.82;28.93;36.26;;
69620;Laerm;57654;51.434;5.984;2022-09-09T00:47:59;31.69;29.17;37.40;;
69620;Laerm;57654;51.434;5.984;2022-09-09T00:48:11;31.85;29.23;39.05;;
69620;Laerm;57654;51.434;5.984;2022-09-09T00:48:22;31.55;29.33;37.15;;
69620;Laerm;57654;51.434;5.984;2022-09-09T00:49:07;31.89;29.59;36.34;;
69620;Laerm;57654;51.434;5.984;2022-09-09T00:49:32;31.65;29.36;40.74;;
69620;Laerm;57654;51.434;5.984;2022-09-09T00:50:39;31.69;29.41;36.49;;
69620;Laerm;57654;51.434;5.984;2022-09-09T00:50:57;31.77;29.18;37.97;;
69620;Laerm;57654;51.434;5.984;2022-09-09T00:51:19;31.82;29.36;37.49;;
69620;Laerm;57654;51.434;5.984;2022-09-09T00:51:50;32.21;30.11;36.88;;
69620;Laerm;57654;51.434;5.984;2022-09-09T00:52:24;31.99;29.60;40.16;;
69620;Laerm;57654;51.434;5.984;2022-09-09T00:52:42;31.74;29.50;37.02;;
69620;Laerm;57654;51.434;5.984;2022-09-09T00:54:42;31.71;29.23;38.47;;
69620;Laerm;57654;51.434;5.984;2022-09-09T00:56:12;31.33;29.08;35.91;;
69620;Laerm;57654;51.434;5.984;2022-09-09T00:56:19;31.70;29.28;36.58;;
69620;Laerm;57654;51.434;5.984;2022-09-09T00:56:35;31.91;29.71;38.33;;
69620;Laerm;57654;51.434;5.984;2022-09-09T00:56:52;31.55;28.57;40.31;;
69620;Laerm;57654;51.434;5.984;2022-09-09T00:57:29;31.53;29.12;38.33;;
69620;Laerm;57654;51.434;5.984;2022-09-09T00:57:41;31.53;28.41;37.81;;
69620;Laerm;57654;51.434;5.984;2022-09-09T00:57:52;31.73;29.37;36.65;;
69620;Laerm;57654;51.434;5.984;2022-09-09T00:58:02;31.70;29.56;37.19;;
69620;Laerm;57654;51.434;5.984;2022-09-09T00:58:12;31.48;29.45;34.19;;
69620;Laerm;57654;51.434;5.984;2022-09-09T00:58:23;31.64;29.59;36.77;;
69620;Laerm;57654;51.434;5.984;2022-09-09T00:58:33;31.57;28.86;35.68;;
69620;Laerm;57654;51.434;5.984;2022-09-09T00:58:48;31.76;29.57;36.43;;
69620;Laerm;57654;51.434;5.984;2022-09-09T00:59:11;31.54;29.18;37.81;;
69620;Laerm;57654;51.434;5.984;2022-09-09T01:00:27;31.73;29.34;36.55;;
69620;Laerm;57654;51.434;5.984;2022-09-09T01:00:52;31.61;29.25;36.57;;
69620;Laerm;57654;51.434;5.984;2022-09-09T01:01:09;31.52;29.05;37.08;;
69620;Laerm;57654;51.434;5.984;2022-09-09T01:01:21;31.52;29.25;40.76;;
69620;Laerm;57654;51.434;5.984;2022-09-09T01:01:31;31.68;29.10;37.33;;
69620;Laerm;57654;51.434;5.984;2022-09-09T01:01:41;31.67;29.32;39.15;;
69620;Laerm;57654;51.434;5.984;2022-09-09T01:01:52;31.67;29.18;35.41;;
69620;Laerm;57654;51.434;5.984;2022-09-09T01:02:25;31.74;29.44;40.00;;
69620;Laerm;57654;51.434;5.984;2022-09-09T01:03:35;31.66;29.09;38.10;;
69620;Laerm;57654;51.434;5.984;2022-09-09T01:03:52;31.60;29.33;36.14;;
69620;Laerm;57654;51.434;5.984;2022-09-09T01:04:10;31.67;29.24;39.12;;
69620;Laerm;57654;51.434;5.984;2022-09-09T01:04:33;31.44;29.34;38.26;;
69620;Laerm;57654;51.434;5.984;2022-09-09T01:04:45;31.61;29.24;36.77;;
69620;Laerm;57654;51.434;5.984;2022-09-09T01:05:02;31.65;29.20;38.82;;
69620;Laerm;57654;51.434;5.984;2022-09-09T01:05:27;31.44;29.00;36.39;;
69620;Laerm;57654;51.434;5.984;2022-09-09T01:05:44;31.50;29.10;41.72;;
69620;Laerm;57654;51.434;5.984;2022-09-09T01:06:35;31.65;29.46;39.92;;
69620;Laerm;57654;51.434;5.984;2022-09-09T01:06:50;31.72;28.92;37.58;;
69620;Laerm;57654;51.434;5.984;2022-09-09T01:07:07;31.82;29.49;39.80;;
69620;Laerm;57654;51.434;5.984;2022-09-09T01:07:22;31.81;28.98;36.33;;
69620;Laerm;57654;51.434;5.984;2022-09-09T01:07:33;31.63;29.78;35.42;;
69620;Laerm;57654;51.434;5.984;2022-09-09T01:07:44;31.87;29.57;37.01;;
69620;Laerm;57654;51.434;5.984;2022-09-09T01:07:57;31.74;29.25;40.75;;
69620;Laerm;57654;51.434;5.984;2022-09-09T01:08:11;31.74;29.07;38.58;;
69620;Laerm;57654;51.434;5.984;2022-09-09T01:09:32;32.48;29.49;38.86;;
69620;Laerm;57654;51.434;5.984;2022-09-09T01:09:56;32.32;30.10;35.67;;
69620;Laerm;57654;51.434;5.984;2022-09-09T01:10:10;32.26;29.81;37.03;;
69620;Laerm;57654;51.434;5.984;2022-09-09T01:10:31;32.53;29.54;36.89;;
69620;Laerm;57654;51.434;5.984;2022-09-09T01:10:49;32.69;29.83;36.87;;
69620;Laerm;57654;51.434;5.984;2022-09-09T01:11:00;32.66;29.50;37.73;;
69620;Laerm;57654;51.434;5.984;2022-09-09T01:11:16;32.05;29.59;37.30;;
69620;Laerm;57654;51.434;5.984;2022-09-09T01:12:16;31.31;29.08;35.61;;
69620;Laerm;57654;51.434;5.984;2022-09-09T01:12:41;31.52;29.25;35.29;;
69620;Laerm;57654;51.434;5.984;2022-09-09T01:12:52;31.45;29.05;35.62;;
69620;Laerm;57654;51.434;5.984;2022-09-09T01:13:04;31.70;29.55;38.09;;
69620;Laerm;57654;51.434;5.984;2022-09-09T01:13:25;31.41;29.11;36.49;;
69620;Laerm;57654;51.434;5.984;2022-09-09T01:13:36;31.39;28.73;37.86;;
69620;Laerm;57654;51.434;5.984;2022-09-09T01:13:47;31.69;29.43;35.67;;
69620;Laerm;57654;51.434;5.984;2022-09-09T01:14:22;31.86;29.50;42.81;;
69620;Laerm;57654;51.434;5.984;2022-09-09T01:14:50;31.54;29.21;36.41;;
69620;Laerm;57654;51.434;5.984;2022-09-09T01:15:29;31.82;29.61;37.68;;
69620;Laerm;57654;51.434;5.984;2022-09-09T01:15:41;31.84;29.38;36.43;;
69620;Laerm;57654;51.434;5.984;2022-09-09T01:15:54;31.74;29.56;37.78;;
69620;Laerm;57654;51.434;5.984;2022-09-09T01:16:06;31.50;29.31;36.63;;
69620;Laerm;57654;51.434;5.984;2022-09-09T01:16:18;31.69;29.32;36.25;;
69620;Laerm;57654;51.434;5.984;2022-09-09T01:16:28;31.60;29.33;35.30;;
69620;Laerm;57654;51.434;5.984;2022-09-09T01:16:40;31.63;29.23;36.12;;
69620;Laerm;57654;51.434;5.984;2022-09-09T01:16:53;39.04;30.72;46.07;;
69620;Laerm;57654;51.434;5.984;2022-09-09T01:17:14;45.80;43.11;49.60;;
69620;Laerm;57654;51.434;5.984;2022-09-09T01:17:33;43.67;35.61;46.34;;
69620;Laerm;57654;51.434;5.984;2022-09-09T01:17:50;35.27;31.31;38.61;;
69620;Laerm;57654;51.434;5.984;2022-09-09T01:18:12;33.92;29.98;37.17;;
69620;Laerm;57654;51.434;5.984;2022-09-09T01:18:26;32.69;29.89;35.80;;
69620;Laerm;57654;51.434;5.984;2022-09-09T01:18:43;31.99;29.53;38.06;;
69620;Laerm;57654;51.434;5.984;2022-09-09T01:18:54;31.92;29.21;38.66;;
69620;Laerm;57654;51.434;5.984;2022-09-09T01:19:06;31.65;29.04;35.57;;
69620;Laerm;57654;51.434;5.984;2022-09-09T01:19:37;31.65;29.32;36.64;;
69620;Laerm;57654;51.434;5.984;2022-09-09T01:20:27;31.53;29.29;39.35;;
69620;Laerm;57654;51.434;5.984;2022-09-09T01:21:02;33.28;29.78;37.63;;
69620;Laerm;57654;51.434;5.984;2022-09-09T01:21:43;42.79;38.85;47.59;;
69620;Laerm;57654;51.434;5.984;2022-09-09T01:22:10;47.67;44.71;49.91;;
69620;Laerm;57654;51.434;5.984;2022-09-09T01:22:44;35.28;32.00;40.63;;
69620;Laerm;57654;51.434;5.984;2022-09-09T01:26:08;31.40;29.11;37.23;;
69620;Laerm;57654;51.434;5.984;2022-09-09T01:26:42;31.48;29.09;36.47;;
69620;Laerm;57654;51.434;5.984;2022-09-09T01:26:54;31.61;29.23;36.64;;
69620;Laerm;57654;51.434;5.984;2022-09-09T01:27:06;31.23;28.88;35.24;;
69620;Laerm;57654;51.434;5.984;2022-09-09T01:27:17;31.49;28.83;37.38;;
69620;Laerm;57654;51.434;5.984;2022-09-09T01:27:28;31.25;28.80;35.21;;
69620;Laerm;57654;51.434;5.984;2022-09-09T01:27:39;31.38;29.15;34.52;;
69620;Laerm;57654;51.434;5.984;2022-09-09T01:27:52;31.45;29.39;38.37;;
69620;Laerm;57654;51.434;5.984;2022-09-09T01:28:04;31.12;29.13;36.56;;
69620;Laerm;57654;51.434;5.984;2022-09-09T01:28:19;31.29;29.06;38.71;;
69620;Laerm;57654;51.434;5.984;2022-09-09T01:28:31;31.29;29.18;34.70;;
69620;Laerm;57654;51.434;5.984;2022-09-09T01:28:46;32.94;29.27;45.85;;
69620;Laerm;57654;51.434;5.984;2022-09-09T01:28:57;31.47;29.17;36.73;;
69620;Laerm;57654;51.434;5.984;2022-09-09T01:29:08;32.38;29.46;41.07;;
69620;Laerm;57654;51.434;5.984;2022-09-09T01:29:19;32.17;29.79;35.82;;
69620;Laerm;57654;51.434;5.984;2022-09-09T01:29:31;33.34;30.51;36.40;;
69620;Laerm;57654;51.434;5.984;2022-09-09T01:29:42;32.72;30.36;36.14;;
69620;Laerm;57654;51.434;5.984;2022-09-09T01:29:52;32.28;29.79;36.50;;
69620;Laerm;57654;51.434;5.984;2022-09-09T01:30:05;31.83;28.95;38.51;;
69620;Laerm;57654;51.434;5.984;2022-09-09T01:30:19;31.34;29.22;36.52;;
69620;Laerm;57654;51.434;5.984;2022-09-09T01:30:37;31.48;29.25;37.42;;
69620;Laerm;57654;51.434;5.984;2022-09-09T01:30:47;31.25;28.98;36.03;;
69620;Laerm;57654;51.434;5.984;2022-09-09T01:30:58;31.30;28.83;36.52;;
69620;Laerm;57654;51.434;5.984;2022-09-09T01:31:09;31.41;28.92;37.16;;
69620;Laerm;57654;51.434;5.984;2022-09-09T01:31:22;31.55;29.37;38.70;;
69620;Laerm;57654;51.434;5.984;2022-09-09T01:31:38;31.32;29.07;36.23;;
69620;Laerm;57654;51.434;5.984;2022-09-09T01:32:42;31.33;28.64;37.42;;
69620;Laerm;57654;51.434;5.984;2022-09-09T01:32:54;31.84;28.99;47.84;;
69620;Laerm;57654;51.434;5.984;2022-09-09T01:33:04;31.52;29.06;35.94;;
69620;Laerm;57654;51.434;5.984;2022-09-09T01:33:16;31.39;29.17;36.46;;
69620;Laerm;57654;51.434;5.984;2022-09-09T01:33:26;35.38;30.47;44.04;;
69620;Laerm;57654;51.434;5.984;2022-09-09T01:33:37;38.27;31.39;46.52;;
69620;Laerm;57654;51.434;5.984;2022-09-09T01:33:47;43.26;33.15;51.38;;
69620;Laerm;57654;51.434;5.984;2022-09-09T01:33:58;43.40;35.36;53.42;;
69620;Laerm;57654;51.434;5.984;2022-09-09T01:34:12;37.07;32.41;42.20;;
69620;Laerm;57654;51.434;5.984;2022-09-09T01:34:24;35.70;30.30;40.43;;
69620;Laerm;57654;51.434;5.984;2022-09-09T01:34:36;33.73;30.26;39.22;;
69620;Laerm;57654;51.434;5.984;2022-09-09T01:34:48;32.22;29.25;36.62;;
69620;Laerm;57654;51.434;5.984;2022-09-09T01:34:59;31.75;29.49;35.46;;
69620;Laerm;57654;51.434;5.984;2022-09-09T01:35:13;31.53;29.51;38.58;;
69620;Laerm;57654;51.434;5.984;2022-09-09T01:35:59;31.46;29.33;36.71;;
69620;Laerm;57654;51.434;5.984;2022-09-09T01:36:12;31.33;28.95;37.12;;
69620;Laerm;57654;51.434;5.984;2022-09-09T01:36:34;31.44;29.03;35.43;;
69620;Laerm;57654;51.434;5.984;2022-09-09T01:37:05;31.35;29.07;39.06;;
69620;Laerm;57654;51.434;5.984;2022-09-09T01:37:16;31.43;29.09;37.75;;
69620;Laerm;57654;51.434;5.984;2022-09-09T01:37:26;31.21;29.11;34.41;;
69620;Laerm;57654;51.434;5.984;2022-09-09T01:37:37;31.51;29.21;36.54;;
69620;Laerm;57654;51.434;5.984;2022-09-09T01:37:47;31.44;29.16;39.61;;
69620;Laerm;57654;51.434;5.984;2022-09-09T01:37:58;31.77;29.25;40.70;;
69620;Laerm;57654;51.434;5.984;2022-09-09T01:38:08;31.57;29.12;34.85;;
69620;Laerm;57654;51.434;5.984;2022-09-09T01:38:19;31.37;29.20;36.52;;
69620;Laerm;57654;51.434;5.984;2022-09-09T01:38:29;31.39;28.98;35.98;;
69620;Laerm;57654;51.434;5.984;2022-09-09T01:38:41;31.78;28.79;43.66;;
69620;Laerm;57654;51.434;5.984;2022-09-09T01:38:51;31.20;29.14;34.23;;
69620;Laerm;57654;51.434;5.984;2022-09-09T01:39:02;31.31;29.12;35.66;;
69620;Laerm;57654;51.434;5.984;2022-09-09T01:39:12;31.27;29.14;36.59;;
69620;Laerm;57654;51.434;5.984;2022-09-09T01:39:23;31.54;29.15;36.68;;
69620;Laerm;57654;51.434;5.984;2022-09-09T01:39:34;31.39;29.32;36.02;;
69620;Laerm;57654;51.434;5.984;2022-09-09T01:39:45;31.24;28.68;35.98;;
69620;Laerm;57654;51.434;5.984;2022-09-09T01:39:56;31.35;28.67;37.16;;
69620;Laerm;57654;51.434;5.984;2022-09-09T01:40:06;31.53;29.10;38.01;;
69620;Laerm;57654;51.434;5.984;2022-09-09T01:40:17;31.40;29.00;35.75;;
69620;Laerm;57654;51.434;5.984;2022-09-09T01:40:27;31.35;29.00;35.36;;
69620;Laerm;57654;51.434;5.984;2022-09-09T01:40:37;31.49;28.93;36.42;;
69620;Laerm;57654;51.434;5.984;2022-09-09T01:40:48;31.50;29.36;36.66;;
69620;Laerm;57654;51.434;5.984;2022-09-09T01:40:59;31.51;29.05;37.09;;
69620;Laerm;57654;51.434;5.984;2022-09-09T01:41:09;31.35;29.01;34.73;;
69620;Laerm;57654;51.434;5.984;2022-09-09T01:41:20;31.62;29.41;39.64;;
69620;Laerm;57654;51.434;5.984;2022-09-09T01:41:30;31.36;29.09;36.12;;
69620;Laerm;57654;51.434;5.984;2022-09-09T01:41:40;31.22;28.96;35.45;;
69620;Laerm;57654;51.434;5.984;2022-09-09T01:41:51;31.33;28.61;35.67;;
69620;Laerm;57654;51.434;5.984;2022-09-09T01:42:02;31.41;28.74;36.16;;
69620;Laerm;57654;51.434;5.984;2022-09-09T01:42:14;31.66;29.18;40.01;;
69620;Laerm;57654;51.434;5.984;2022-09-09T01:42:26;32.83;29.72;37.90;;
69620;Laerm;57654;51.434;5.984;2022-09-09T01:42:36;33.57;30.55;37.62;;
69620;Laerm;57654;51.434;5.984;2022-09-09T01:42:46;34.41;30.64;39.95;;
69620;Laerm;57654;51.434;5.984;2022-09-09T01:42:57;33.25;30.18;37.47;;
69620;Laerm;57654;51.434;5.984;2022-09-09T01:43:07;32.71;29.89;37.99;;
69620;Laerm;57654;51.434;5.984;2022-09-09T01:43:19;32.14;29.60;35.46;;
69620;Laerm;57654;51.434;5.984;2022-09-09T01:43:30;32.02;29.72;35.94;;
69620;Laerm;57654;51.434;5.984;2022-09-09T01:43:40;31.86;29.39;35.09;;
69620;Laerm;57654;51.434;5.984;2022-09-09T01:43:50;31.73;29.46;35.10;;
69620;Laerm;57654;51.434;5.984;2022-09-09T01:44:01;31.72;29.23;35.83;;
69620;Laerm;57654;51.434;5.984;2022-09-09T01:44:12;31.46;29.43;36.42;;
69620;Laerm;57654;51.434;5.984;2022-09-09T01:44:23;31.58;29.61;36.08;;
69620;Laerm;57654;51.434;5.984;2022-09-09T01:44:35;31.60;29.10;38.13;;
69620;Laerm;57654;51.434;5.984;2022-09-09T01:44:46;31.29;29.11;35.92;;
69620;Laerm;57654;51.434;5.984;2022-09-09T01:44:56;31.73;29.58;38.59;;
69620;Laerm;57654;51.434;5.984;2022-09-09T01:45:07;31.55;29.43;35.87;;
69620;Laerm;57654;51.434;5.984;2022-09-09T01:45:17;31.53;29.28;38.23;;
69620;Laerm;57654;51.434;5.984;2022-09-09T01:45:28;31.34;29.27;35.23;;
69620;Laerm;57654;51.434;5.984;2022-09-09T01:45:39;31.54;29.05;35.49;;
69620;Laerm;57654;51.434;5.984;2022-09-09T01:45:49;31.36;29.20;34.08;;
69620;Laerm;57654;51.434;5.984;2022-09-09T01:46:01;31.71;29.02;40.29;;
69620;Laerm;57654;51.434;5.984;2022-09-09T01:46:12;31.73;29.03;37.13;;
69620;Laerm;57654;51.434;5.984;2022-09-09T01:46:22;31.76;29.14;38.60;;
69620;Laerm;57654;51.434;5.984;2022-09-09T01:46:33;31.51;29.21;34.78;;
69620;Laerm;57654;51.434;5.984;2022-09-09T01:46:43;31.58;29.32;35.79;;
69620;Laerm;57654;51.434;5.984;2022-09-09T01:46:53;31.64;29.39;35.90;;
69620;Laerm;57654;51.434;5.984;2022-09-09T01:47:04;32.09;29.72;38.60;;
69620;Laerm;57654;51.434;5.984;2022-09-09T01:47:15;31.75;29.43;35.10;;
69620;Laerm;57654;51.434;5.984;2022-09-09T01:47:25;31.72;29.58;36.12;;
69620;Laerm;57654;51.434;5.984;2022-09-09T01:47:35;31.52;29.45;34.90;;
69620;Laerm;57654;51.434;5.984;2022-09-09T01:47:46;33.85;29.51;47.14;;
69620;Laerm;57654;51.434;5.984;2022-09-09T01:47:56;31.92;29.80;36.81;;
69620;Laerm;57654;51.434;5.984;2022-09-09T01:48:07;31.92;29.59;36.50;;
69620;Laerm;57654;51.434;5.984;2022-09-09T01:48:17;31.49;29.09;35.98;;
69620;Laerm;57654;51.434;5.984;2022-09-09T01:48:28;31.58;29.15;35.75;;
69620;Laerm;57654;51.434;5.984;2022-09-09T01:48:40;38.22;29.20;59.51;;
69620;Laerm;57654;51.434;5.984;2022-09-09T01:48:51;32.67;29.95;36.82;;
69620;Laerm;57654;51.434;5.984;2022-09-09T01:49:03;47.25;32.96;52.68;;
69620;Laerm;57654;51.434;5.984;2022-09-09T01:49:15;50.22;46.41;53.55;;
69620;Laerm;57654;51.434;5.984;2022-09-09T01:49:26;50.72;44.56;53.88;;
69620;Laerm;57654;51.434;5.984;2022-09-09T01:49:36;40.18;35.62;47.02;;
69620;Laerm;57654;51.434;5.984;2022-09-09T01:49:47;36.10;34.14;38.51;;
69620;Laerm;57654;51.434;5.984;2022-09-09T01:49:57;36.40;34.19;39.37;;
69620;Laerm;57654;51.434;5.984;2022-09-09T01:50:08;37.23;34.61;42.13;;
69620;Laerm;57654;51.434;5.984;2022-09-09T01:50:21;50.37;39.11;54.09;;
69620;Laerm;57654;51.434;5.984;2022-09-09T01:50:31;53.50;51.76;55.53;;
69620;Laerm;57654;51.434;5.984;2022-09-09T01:50:41;50.74;41.09;57.73;;
69620;Laerm;57654;51.434;5.984;2022-09-09T01:50:52;35.96;30.50;42.36;;
69620;Laerm;57654;51.434;5.984;2022-09-09T01:51:02;31.97;29.77;35.46;;